createdAt,value
2017-11-17T00:00:44.849Z,23.83
2017-11-17T00:01:50.362Z,29.48
2017-11-17T00:02:55.955Z,38.08
2017-11-17T00:04:01.487Z,28.27
2017-11-17T00:05:06.988Z,30.12
2017-11-17T00:06:12.805Z,31.15
2017-11-17T00:07:18.260Z,28.92
2017-11-17T00:08:23.695Z,32.78
2017-11-17T00:09:29.378Z,31.87
2017-11-17T00:10:34.973Z,25.70
2017-11-17T00:11:40.696Z,30.58
2017-11-17T00:12:46.223Z,27.50
2017-11-17T00:13:51.743Z,29.85
2017-11-17T00:14:58.435Z,25.98
2017-11-17T00:16:03.972Z,29.65
2017-11-17T00:17:09.673Z,27.35
2017-11-17T00:18:15.258Z,26.27
2017-11-17T00:19:20.692Z,32.03
2017-11-17T00:20:26.307Z,26.73
2017-11-17T00:21:31.789Z,32.00
2017-11-17T00:22:37.368Z,31.10
2017-11-17T00:23:42.825Z,27.42
2017-11-17T00:24:48.437Z,32.25
2017-11-17T00:25:54.098Z,28.15
2017-11-17T00:27:00.412Z,26.70
2017-11-17T00:28:05.850Z,29.10
2017-11-17T00:29:11.302Z,27.33
2017-11-17T00:30:16.802Z,30.15
2017-11-17T00:31:22.412Z,34.63
2017-11-17T00:32:27.887Z,32.70
2017-11-17T00:33:33.629Z,29.60
2017-11-17T00:34:42.455Z,28.10
2017-11-17T00:35:47.929Z,27.65
2017-11-17T00:36:54.035Z,24.95
2017-11-17T00:37:59.534Z,25.48
2017-11-17T00:39:05.058Z,28.53
2017-11-17T00:40:10.509Z,28.30
2017-11-17T00:41:16.652Z,34.20
2017-11-17T00:42:22.183Z,30.17
2017-11-17T00:43:27.633Z,29.77
2017-11-17T00:44:33.266Z,25.67
2017-11-17T00:45:39.223Z,29.50
2017-11-17T00:46:44.690Z,31.63
2017-11-17T00:47:50.132Z,34.28
2017-11-17T00:48:55.600Z,29.40
2017-11-17T00:50:01.140Z,31.57
2017-11-17T00:51:06.545Z,27.48
2017-11-17T00:52:12.142Z,35.53
2017-11-17T00:53:17.592Z,31.73
2017-11-17T00:54:23.062Z,34.55
2017-11-17T00:55:28.612Z,28.62
2017-11-17T00:56:34.181Z,33.20
2017-11-17T00:57:40.217Z,33.30
2017-11-17T00:58:45.605Z,30.80
2017-11-17T00:59:51.035Z,31.80
2017-11-17T01:00:56.550Z,30.65
2017-11-17T01:02:02.000Z,31.60
2017-11-17T01:03:07.431Z,30.40
2017-11-17T01:04:12.857Z,32.25
2017-11-17T01:05:18.320Z,34.47
2017-11-17T01:06:23.787Z,33.25
2017-11-17T01:07:29.202Z,27.65
2017-11-17T01:08:34.753Z,31.70
2017-11-17T01:09:40.260Z,32.55
2017-11-17T01:10:45.676Z,27.73
2017-11-17T01:11:51.112Z,28.02
2017-11-17T01:12:56.612Z,30.00
2017-11-17T01:14:02.395Z,30.98
2017-11-17T01:15:09.761Z,33.47
2017-11-17T01:16:18.721Z,27.15
2017-11-17T01:17:25.288Z,28.23
2017-11-17T01:18:31.440Z,31.95
2017-11-17T01:19:36.884Z,37.83
2017-11-17T01:20:42.379Z,28.62
2017-11-17T01:21:47.838Z,35.72
2017-11-17T01:22:53.279Z,29.00
2017-11-17T01:23:58.812Z,31.98
2017-11-17T01:25:04.900Z,29.58
2017-11-17T01:26:10.301Z,26.40
2017-11-17T01:27:18.092Z,32.83
2017-11-17T01:28:24.554Z,31.80
2017-11-17T01:29:30.160Z,34.67
2017-11-17T01:30:35.824Z,31.27
2017-11-17T01:31:41.413Z,31.08
2017-11-17T01:32:46.851Z,31.10
2017-11-17T01:33:54.460Z,29.77
2017-11-17T01:35:00.485Z,33.33
2017-11-17T01:36:06.432Z,33.05
2017-11-17T01:37:15.737Z,31.58
2017-11-17T01:38:21.845Z,32.17
2017-11-17T01:39:27.288Z,35.58
2017-11-17T01:40:33.049Z,92.28
2017-11-17T01:41:38.506Z,35.67
2017-11-17T01:42:43.954Z,34.88
2017-11-17T01:43:49.828Z,34.93
2017-11-17T01:44:55.329Z,34.50
2017-11-17T01:46:00.989Z,38.60
2017-11-17T01:47:07.038Z,36.15
2017-11-17T01:48:12.486Z,32.53
2017-11-17T01:49:17.910Z,33.03
2017-11-17T01:50:23.415Z,39.05
2017-11-17T01:51:29.052Z,34.63
2017-11-17T01:52:34.463Z,32.05
2017-11-17T01:53:39.897Z,34.45
2017-11-17T01:54:45.318Z,32.63
2017-11-17T01:55:50.935Z,27.90
2017-11-17T01:56:56.756Z,34.20
2017-11-17T01:58:02.542Z,29.98
2017-11-17T01:59:07.998Z,37.13
2017-11-17T02:00:13.509Z,33.47
2017-11-17T02:01:18.951Z,33.97
2017-11-17T02:02:24.555Z,32.43
2017-11-17T02:03:29.995Z,32.28
2017-11-17T02:04:35.503Z,33.05
2017-11-17T02:05:41.005Z,34.97
2017-11-17T02:06:46.920Z,33.75
2017-11-17T02:07:52.503Z,36.95
2017-11-17T02:08:57.956Z,34.08
2017-11-17T02:10:03.547Z,35.03
2017-11-17T02:11:09.094Z,32.35
2017-11-17T02:12:14.545Z,34.08
2017-11-17T02:13:19.974Z,39.72
2017-11-17T02:14:25.752Z,38.35
2017-11-17T02:15:31.248Z,36.08
2017-11-17T02:16:36.697Z,31.23
2017-11-17T02:17:42.185Z,32.95
2017-11-17T02:18:47.611Z,35.83
2017-11-17T02:19:53.455Z,38.53
2017-11-17T02:20:58.985Z,35.80
2017-11-17T02:22:04.832Z,38.13
2017-11-17T02:23:10.539Z,33.22
2017-11-17T02:24:16.089Z,39.97
2017-11-17T02:25:21.768Z,39.70
2017-11-17T02:26:27.308Z,33.40
2017-11-17T02:27:33.073Z,33.92
2017-11-17T02:28:38.724Z,29.67
2017-11-17T02:29:44.297Z,36.33
2017-11-17T02:30:50.184Z,35.08
2017-11-17T02:31:55.640Z,37.17
2017-11-17T02:33:01.135Z,35.70
2017-11-17T02:34:06.983Z,47.15
2017-11-17T02:35:12.726Z,35.95
2017-11-17T02:36:19.113Z,37.22
2017-11-17T02:37:24.969Z,38.78
2017-11-17T02:38:31.137Z,41.28
2017-11-17T02:39:37.085Z,42.70
2017-11-17T02:40:43.038Z,38.65
2017-11-17T02:41:48.715Z,38.90
2017-11-17T02:42:54.421Z,40.10
2017-11-17T02:43:59.884Z,41.20
2017-11-17T02:45:05.486Z,41.00
2017-11-17T02:46:10.949Z,37.35
2017-11-17T02:47:16.718Z,39.47
2017-11-17T02:48:22.414Z,41.13
2017-11-17T02:49:28.062Z,40.67
2017-11-17T02:50:33.538Z,35.67
2017-11-17T02:51:38.981Z,39.67
2017-11-17T02:52:44.785Z,44.38
2017-11-17T02:53:50.612Z,41.05
2017-11-17T02:54:56.401Z,43.35
2017-11-17T02:56:02.381Z,45.22
2017-11-17T02:57:07.899Z,42.08
2017-11-17T02:58:13.398Z,47.28
2017-11-17T02:59:19.141Z,42.30
2017-11-17T03:00:25.001Z,35.95
2017-11-17T03:01:30.923Z,42.78
2017-11-17T03:02:36.365Z,42.70
2017-11-17T03:03:42.361Z,46.60
2017-11-17T03:04:48.468Z,42.17
2017-11-17T03:05:53.994Z,41.90
2017-11-17T03:06:59.790Z,43.97
2017-11-17T03:08:05.685Z,41.53
2017-11-17T03:09:11.127Z,43.97
2017-11-17T03:10:16.909Z,45.93
2017-11-17T03:11:22.489Z,40.12
2017-11-17T03:12:27.948Z,42.05
2017-11-17T03:13:33.395Z,40.67
2017-11-17T03:14:38.839Z,43.35
2017-11-17T03:15:44.686Z,40.28
2017-11-17T03:16:50.169Z,41.72
2017-11-17T03:17:55.594Z,42.05
2017-11-17T03:19:01.301Z,49.45
2017-11-17T03:20:06.910Z,47.83
2017-11-17T03:21:12.701Z,49.75
2017-11-17T03:22:18.751Z,47.50
2017-11-17T03:23:24.260Z,46.53
2017-11-17T03:24:29.873Z,48.20
2017-11-17T03:25:35.625Z,41.88
2017-11-17T03:26:41.076Z,40.55
2017-11-17T03:27:46.572Z,41.17
2017-11-17T03:28:52.066Z,41.45
2017-11-17T03:29:57.477Z,43.72
2017-11-17T03:31:03.402Z,43.47
2017-11-17T03:32:09.129Z,43.43
2017-11-17T03:33:14.672Z,40.88
2017-11-17T03:34:20.425Z,38.83
2017-11-17T03:35:26.132Z,43.05
2017-11-17T03:36:31.885Z,39.05
2017-11-17T03:37:37.577Z,41.80
2017-11-17T03:38:43.021Z,45.00
2017-11-17T03:39:48.675Z,40.65
2017-11-17T03:40:54.397Z,47.50
2017-11-17T03:42:00.238Z,45.17
2017-11-17T03:43:06.170Z,45.15
2017-11-17T03:44:11.847Z,44.97
2017-11-17T03:45:17.270Z,42.25
2017-11-17T03:46:23.336Z,47.67
2017-11-17T03:47:29.046Z,44.40
2017-11-17T03:48:34.920Z,47.57
2017-11-17T03:49:40.802Z,53.05
2017-11-17T03:50:46.586Z,44.45
2017-11-17T03:51:52.888Z,42.58
2017-11-17T03:52:58.598Z,45.08
2017-11-17T03:54:04.515Z,49.27
2017-11-17T03:55:09.987Z,43.33
2017-11-17T03:56:15.390Z,44.08
2017-11-17T03:57:21.368Z,46.40
2017-11-17T03:58:26.904Z,44.92
2017-11-17T03:59:32.463Z,47.00
2017-11-17T04:00:38.173Z,48.35
2017-11-17T04:01:43.708Z,40.40
2017-11-17T04:02:49.238Z,46.58
2017-11-17T04:03:55.346Z,47.25
2017-11-17T04:05:00.798Z,46.05
2017-11-17T04:06:06.247Z,47.08
2017-11-17T04:07:12.038Z,45.55
2017-11-17T04:08:17.994Z,46.05
2017-11-17T04:09:23.672Z,44.55
2017-11-17T04:10:29.411Z,44.30
2017-11-17T04:11:34.987Z,47.17
2017-11-17T04:12:40.381Z,47.20
2017-11-17T04:13:46.104Z,46.15
2017-11-17T04:14:51.804Z,53.40
2017-11-17T04:15:57.358Z,48.45
2017-11-17T04:17:02.833Z,51.80
2017-11-17T04:18:08.504Z,59.67
2017-11-17T04:19:14.294Z,58.67
2017-11-17T04:20:20.004Z,53.70
2017-11-17T04:21:25.624Z,59.97
2017-11-17T04:22:31.076Z,61.15
2017-11-17T04:23:36.525Z,57.62
2017-11-17T04:24:42.573Z,62.45
2017-11-17T04:25:48.574Z,58.95
2017-11-17T04:26:54.342Z,67.37
2017-11-17T04:27:59.829Z,60.50
2017-11-17T04:29:05.244Z,66.00
2017-11-17T04:30:10.869Z,57.60
2017-11-17T04:31:16.593Z,64.60
2017-11-17T04:32:22.359Z,63.28
2017-11-17T04:33:27.955Z,68.10
2017-11-17T04:34:33.391Z,71.65
2017-11-17T04:35:38.891Z,70.53
2017-11-17T04:36:44.779Z,71.25
2017-11-17T04:37:50.470Z,75.57
2017-11-17T04:38:56.038Z,63.35
2017-11-17T04:40:01.643Z,68.62
2017-11-17T04:41:07.128Z,64.15
2017-11-17T04:42:12.598Z,71.37
2017-11-17T04:43:18.475Z,73.20
2017-11-17T04:44:23.891Z,64.25
2017-11-17T04:45:29.391Z,71.97
2017-11-17T04:48:11.229Z,67.40
2017-11-17T04:49:16.698Z,63.27
2017-11-17T04:50:22.138Z,78.32
2017-11-17T04:51:28.090Z,71.30
2017-11-17T04:52:33.572Z,73.22
2017-11-17T04:53:39.134Z,71.97
2017-11-17T04:54:45.707Z,70.70
2017-11-17T04:55:51.174Z,77.80
2017-11-17T04:56:56.746Z,72.50
2017-11-17T04:58:02.197Z,77.50
2017-11-17T04:59:07.645Z,76.07
2017-11-17T05:00:13.317Z,83.62
2017-11-17T05:01:18.962Z,75.27
2017-11-17T05:02:24.468Z,73.35
2017-11-17T05:03:29.895Z,73.25
2017-11-17T05:04:35.950Z,65.30
2017-11-17T05:05:41.857Z,64.85
2017-11-17T05:06:47.289Z,77.57
2017-11-17T05:07:53.126Z,73.32
2017-11-17T05:08:59.184Z,70.80
2017-11-17T05:10:04.894Z,70.27
2017-11-17T05:11:11.774Z,71.75
2017-11-17T05:12:17.319Z,72.70
2017-11-17T05:13:22.728Z,70.47
2017-11-17T05:14:28.389Z,76.45
2017-11-17T05:15:33.797Z,75.07
2017-11-17T05:16:39.596Z,73.10
2017-11-17T05:17:45.037Z,74.10
2017-11-17T05:18:50.586Z,68.37
2017-11-17T05:19:56.266Z,69.30
2017-11-17T05:21:02.259Z,74.80
2017-11-17T05:22:08.290Z,66.25
2017-11-17T05:23:13.717Z,70.70
2017-11-17T05:24:19.125Z,72.07
2017-11-17T05:25:24.996Z,66.12
2017-11-17T05:26:30.443Z,70.90
2017-11-17T05:27:36.042Z,66.12
2017-11-17T05:28:41.848Z,56.55
2017-11-17T05:29:47.551Z,63.80
2017-11-17T05:30:53.095Z,74.50
2017-11-17T05:31:58.622Z,59.15
2017-11-17T05:33:04.802Z,63.08
2017-11-17T05:34:10.259Z,55.47
2017-11-17T05:35:15.723Z,68.20
2017-11-17T05:36:21.144Z,54.00
2017-11-17T05:37:26.603Z,61.35
2017-11-17T05:38:32.089Z,59.60
2017-11-17T05:39:37.644Z,58.25
2017-11-17T05:40:43.084Z,53.90
2017-11-17T05:41:48.566Z,55.85
2017-11-17T05:42:54.014Z,72.40
2017-11-17T05:43:59.489Z,54.10
2017-11-17T05:45:04.989Z,79.00
2017-11-17T05:46:10.494Z,63.17
2017-11-17T05:47:15.944Z,65.47
2017-11-17T05:48:21.720Z,70.87
2017-11-17T05:49:27.419Z,66.03
2017-11-17T05:50:33.175Z,63.85
2017-11-17T05:51:38.676Z,68.37
2017-11-17T05:52:44.392Z,61.30
2017-11-17T05:53:49.800Z,64.00
2017-11-17T05:54:55.344Z,66.45
2017-11-17T05:56:01.101Z,59.88
2017-11-17T05:57:06.505Z,62.83
2017-11-17T05:58:12.109Z,62.05
2017-11-17T05:59:17.819Z,65.65
2017-11-17T06:00:23.263Z,64.97
2017-11-17T06:01:28.995Z,58.50
2017-11-17T06:02:34.463Z,58.75
2017-11-17T06:03:40.039Z,52.95
2017-11-17T06:04:45.862Z,62.55
2017-11-17T06:05:51.435Z,66.55
2017-11-17T06:06:57.086Z,65.15
2017-11-17T06:08:02.657Z,63.28
2017-11-17T06:09:08.248Z,64.78
2017-11-17T06:10:13.770Z,65.68
2017-11-17T06:11:19.187Z,94.97
2017-11-17T06:12:25.021Z,69.90
2017-11-17T06:13:30.489Z,68.82
2017-11-17T06:14:36.100Z,94.37
2017-11-17T06:15:41.659Z,126.62
2017-11-17T06:16:47.330Z,88.70
2017-11-17T06:17:53.122Z,73.62
2017-11-17T06:18:58.855Z,70.28
2017-11-17T06:20:04.296Z,79.93
2017-11-17T06:21:09.726Z,83.50
2017-11-17T06:22:15.434Z,79.70
2017-11-17T06:23:20.889Z,75.45
2017-11-17T06:24:26.653Z,74.10
2017-11-17T06:25:32.446Z,70.10
2017-11-17T06:26:37.969Z,78.80
2017-11-17T06:27:43.463Z,82.88
2017-11-17T06:28:49.267Z,74.53
2017-11-17T06:29:54.881Z,89.82
2017-11-17T06:31:00.344Z,77.87
2017-11-17T06:32:05.801Z,80.12
2017-11-17T06:33:11.301Z,79.18
2017-11-17T06:34:16.864Z,89.10
2017-11-17T06:35:22.529Z,84.22
2017-11-17T06:36:27.958Z,73.05
2017-11-17T06:37:33.506Z,76.72
2017-11-17T06:38:39.067Z,88.43
2017-11-17T06:39:45.162Z,73.05
2017-11-17T06:40:50.593Z,68.28
2017-11-17T06:41:56.135Z,67.18
2017-11-17T06:43:01.623Z,84.05
2017-11-17T06:44:07.506Z,83.65
2017-11-17T06:45:13.721Z,71.57
2017-11-17T06:47:39.709Z,62.72
2017-11-17T06:48:45.140Z,66.82
2017-11-17T06:49:51.204Z,71.03
2017-11-17T06:50:56.649Z,68.93
2017-11-17T06:52:02.098Z,79.37
2017-11-17T06:53:08.050Z,73.97
2017-11-17T06:54:13.510Z,75.43
2017-11-17T06:55:18.914Z,63.53
2017-11-17T06:56:24.763Z,71.70
2017-11-17T06:57:30.256Z,68.90
2017-11-17T06:58:40.372Z,61.90
2017-11-17T06:59:45.821Z,63.22
2017-11-17T07:00:51.297Z,66.80
2017-11-17T07:01:56.786Z,64.78
2017-11-17T07:03:02.933Z,59.60
2017-11-17T07:04:08.392Z,65.12
2017-11-17T07:05:13.822Z,79.43
2017-11-17T07:06:19.269Z,61.00
2017-11-17T07:07:25.042Z,80.22
2017-11-17T07:08:30.620Z,61.47
2017-11-17T07:09:36.165Z,73.93
2017-11-17T07:10:41.717Z,61.78
2017-11-17T07:11:47.215Z,66.18
2017-11-17T07:12:52.662Z,71.03
2017-11-17T07:13:58.124Z,65.32
2017-11-17T07:15:03.632Z,68.47
2017-11-17T07:16:09.022Z,65.80
2017-11-17T07:17:14.469Z,77.53
2017-11-17T07:18:19.968Z,62.45
2017-11-17T07:19:25.378Z,72.20
2017-11-17T07:20:30.933Z,69.65
2017-11-17T07:21:36.342Z,70.32
2017-11-17T07:22:41.822Z,70.53
2017-11-17T07:23:47.367Z,69.00
2017-11-17T07:24:52.850Z,61.03
2017-11-17T07:25:58.527Z,71.37
2017-11-17T07:27:04.081Z,69.25
2017-11-17T07:28:09.510Z,64.22
2017-11-17T07:29:14.986Z,71.30
2017-11-17T07:30:20.428Z,68.85
2017-11-17T07:31:25.924Z,70.07
2017-11-17T07:32:31.375Z,75.10
2017-11-17T07:33:36.805Z,66.35
2017-11-17T07:34:42.269Z,65.28
2017-11-17T07:35:47.867Z,73.40
2017-11-17T07:36:53.602Z,71.07
2017-11-17T07:37:59.059Z,73.03
2017-11-17T07:39:04.569Z,72.40
2017-11-17T07:40:10.096Z,79.45
2017-11-17T07:41:15.586Z,72.07
2017-11-17T07:42:21.005Z,83.05
2017-11-17T07:43:26.441Z,69.05
2017-11-17T07:44:31.867Z,71.07
2017-11-17T07:45:37.354Z,77.97
2017-11-17T07:46:42.877Z,78.65
2017-11-17T07:47:49.341Z,84.28
2017-11-17T07:48:55.456Z,82.40
2017-11-17T07:50:00.941Z,77.85
2017-11-17T07:51:06.396Z,82.22
2017-11-17T07:52:11.868Z,84.50
2017-11-17T07:53:17.364Z,83.43
2017-11-17T07:54:22.833Z,75.75
2017-11-17T07:55:28.361Z,79.68
2017-11-17T07:56:33.809Z,77.78
2017-11-17T07:57:39.237Z,75.53
2017-11-17T07:58:44.648Z,76.72
2017-11-17T07:59:50.491Z,79.22
2017-11-17T08:00:56.063Z,81.30
2017-11-17T08:02:01.584Z,82.25
2017-11-17T08:03:07.042Z,84.50
2017-11-17T08:04:12.457Z,82.30
2017-11-17T08:05:17.939Z,100.65
2017-11-17T08:06:23.445Z,85.55
2017-11-17T08:07:28.954Z,74.60
2017-11-17T08:08:34.370Z,80.10
2017-11-17T08:09:39.846Z,70.85
2017-11-17T08:10:45.529Z,73.12
2017-11-17T08:11:50.971Z,77.85
2017-11-17T08:12:56.434Z,86.45
2017-11-17T08:14:01.900Z,74.55
2017-11-17T08:15:07.391Z,78.87
2017-11-17T08:16:13.086Z,79.87
2017-11-17T08:17:22.885Z,70.57
2017-11-17T08:18:39.596Z,80.82
2017-11-17T08:19:45.401Z,75.22
2017-11-17T08:20:50.914Z,79.87
2017-11-17T08:21:56.783Z,78.32
2017-11-17T08:23:02.301Z,81.40
2017-11-17T08:24:07.765Z,90.43
2017-11-17T08:25:13.252Z,78.20
2017-11-17T08:26:18.930Z,81.97
2017-11-17T08:27:24.923Z,82.73
2017-11-17T08:28:30.526Z,85.68
2017-11-17T08:29:36.020Z,71.65
2017-11-17T08:30:41.481Z,83.12
2017-11-17T08:31:47.049Z,76.60
2017-11-17T08:32:52.537Z,77.07
2017-11-17T08:33:58.007Z,81.90
2017-11-17T08:35:03.499Z,80.82
2017-11-17T08:36:08.966Z,76.68
2017-11-17T08:37:14.541Z,79.07
2017-11-17T08:38:20.472Z,77.15
2017-11-17T08:39:25.988Z,70.55
2017-11-17T08:40:31.511Z,79.62
2017-11-17T08:41:36.957Z,73.50
2017-11-17T08:42:42.512Z,72.47
2017-11-17T08:43:47.943Z,78.20
2017-11-17T08:44:53.465Z,79.35
2017-11-17T08:45:58.943Z,83.18
2017-11-17T08:47:04.390Z,76.28
2017-11-17T08:48:10.078Z,73.50
2017-11-17T08:49:15.978Z,65.90
2017-11-17T08:50:21.521Z,72.97
2017-11-17T08:51:26.925Z,73.13
2017-11-17T08:52:32.441Z,69.45
2017-11-17T08:53:38.057Z,59.80
2017-11-17T08:54:44.544Z,67.80
2017-11-17T08:55:50.032Z,63.72
2017-11-17T08:56:55.525Z,65.00
2017-11-17T08:58:01.011Z,60.75
2017-11-17T08:59:06.653Z,65.35
2017-11-17T09:00:12.188Z,64.87
2017-11-17T09:01:17.931Z,59.80
2017-11-17T09:02:23.447Z,62.55
2017-11-17T09:03:28.902Z,68.62
2017-11-17T09:04:34.384Z,62.83
2017-11-17T09:05:39.855Z,67.20
2017-11-17T09:06:45.797Z,56.78
2017-11-17T09:07:51.301Z,62.22
2017-11-17T09:08:56.775Z,59.03
2017-11-17T09:10:02.502Z,59.78
2017-11-17T09:11:07.924Z,57.62
2017-11-17T09:12:13.352Z,56.53
2017-11-17T09:13:18.784Z,60.33
2017-11-17T09:14:24.221Z,64.85
2017-11-17T09:15:30.162Z,60.72
2017-11-17T09:16:35.606Z,60.58
2017-11-17T09:17:41.024Z,64.55
2017-11-17T09:18:47.714Z,61.92
2017-11-17T09:19:53.215Z,64.70
2017-11-17T09:20:58.758Z,62.20
2017-11-17T09:22:04.245Z,60.65
2017-11-17T09:23:09.731Z,55.65
2017-11-17T09:24:15.222Z,62.15
2017-11-17T09:25:20.764Z,57.67
2017-11-17T09:26:26.276Z,59.80
2017-11-17T09:27:32.969Z,68.85
2017-11-17T09:28:40.027Z,64.37
2017-11-17T09:29:46.377Z,61.28
2017-11-17T09:30:52.016Z,65.60
2017-11-17T09:31:57.620Z,57.37
2017-11-17T09:33:03.153Z,57.33
2017-11-17T09:34:08.784Z,47.38
2017-11-17T09:35:14.548Z,58.10
2017-11-17T09:36:20.037Z,59.20
2017-11-17T09:37:25.580Z,66.60
2017-11-17T09:38:32.031Z,66.20
2017-11-17T09:39:37.723Z,61.85
2017-11-17T09:40:43.990Z,59.35
2017-11-17T09:41:50.072Z,60.63
2017-11-17T09:42:56.039Z,62.28
2017-11-17T09:44:01.775Z,62.20
2017-11-17T09:45:07.342Z,59.85
2017-11-17T09:46:13.117Z,61.22
2017-11-17T09:47:18.726Z,64.20
2017-11-17T09:48:24.262Z,49.38
2017-11-17T09:49:29.865Z,53.60
2017-11-17T09:50:35.538Z,58.10
2017-11-17T09:51:41.134Z,58.65
2017-11-17T09:52:46.609Z,51.63
2017-11-17T09:53:52.063Z,60.40
2017-11-17T09:54:57.590Z,50.20
2017-11-17T09:56:04.189Z,52.83
2017-11-17T09:57:09.878Z,53.85
2017-11-17T09:58:15.866Z,58.87
2017-11-17T09:59:21.326Z,50.90
2017-11-17T10:00:26.822Z,59.40
2017-11-17T10:01:32.763Z,55.17
2017-11-17T10:02:38.215Z,54.13
2017-11-17T10:03:43.819Z,47.58
2017-11-17T10:04:49.419Z,60.10
2017-11-17T10:05:54.967Z,57.20
2017-11-17T10:07:00.621Z,47.35
2017-11-17T10:08:06.237Z,51.92
2017-11-17T10:09:12.022Z,55.12
2017-11-17T10:10:17.538Z,49.85
2017-11-17T10:11:23.082Z,58.97
2017-11-17T10:12:28.563Z,57.40
2017-11-17T10:13:34.145Z,54.08
2017-11-17T10:14:39.772Z,53.75
2017-11-17T10:15:45.264Z,47.75
2017-11-17T10:16:50.722Z,49.15
2017-11-17T10:17:56.309Z,65.37
2017-11-17T10:19:01.784Z,52.55
2017-11-17T10:20:08.590Z,51.70
2017-11-17T10:21:14.134Z,60.05
2017-11-17T10:22:19.716Z,53.00
2017-11-17T10:23:25.391Z,49.85
2017-11-17T10:24:30.912Z,50.00
2017-11-17T10:25:36.470Z,48.25
2017-11-17T10:26:42.013Z,48.58
2017-11-17T10:27:47.715Z,56.15
2017-11-17T10:28:53.418Z,44.65
2017-11-17T10:29:59.362Z,54.47
2017-11-17T10:31:05.232Z,49.40
2017-11-17T10:32:10.813Z,44.72
2017-11-17T10:33:16.384Z,43.13
2017-11-17T10:34:22.012Z,54.40
2017-11-17T10:35:27.475Z,40.30
2017-11-17T10:36:33.286Z,44.40
2017-11-17T10:37:38.711Z,42.83
2017-11-17T10:38:44.502Z,39.67
2017-11-17T10:39:50.181Z,39.47
2017-11-17T10:40:55.811Z,39.60
2017-11-17T10:42:01.413Z,44.60
2017-11-17T10:43:06.994Z,42.13
2017-11-17T10:44:12.602Z,45.30
2017-11-17T10:45:18.186Z,43.55
2017-11-17T10:46:23.758Z,36.42
2017-11-17T10:47:29.659Z,35.85
2017-11-17T10:48:35.184Z,39.63
2017-11-17T10:49:40.726Z,38.60
2017-11-17T10:50:46.216Z,40.25
2017-11-17T10:51:51.735Z,42.27
2017-11-17T10:52:57.233Z,46.60
2017-11-17T10:54:02.699Z,37.35
2017-11-17T10:55:08.306Z,40.97
2017-11-17T10:56:30.666Z,38.97
2017-11-17T10:57:36.170Z,35.00
2017-11-17T10:58:42.000Z,44.05
2017-11-17T10:59:47.564Z,43.95
2017-11-17T11:00:53.098Z,42.50
2017-11-17T11:01:58.887Z,50.90
2017-11-17T11:03:04.322Z,33.67
2017-11-17T11:04:09.890Z,33.05
2017-11-17T11:05:15.396Z,34.40
2017-11-17T11:06:20.954Z,31.90
2017-11-17T11:07:26.524Z,33.65
2017-11-17T11:08:31.961Z,31.83
2017-11-17T11:09:37.826Z,31.12
2017-11-17T11:10:43.318Z,34.30
2017-11-17T11:11:54.386Z,35.97
2017-11-17T11:12:59.867Z,39.10
2017-11-17T11:14:05.486Z,37.83
2017-11-17T11:15:10.970Z,36.33
2017-11-17T11:16:16.502Z,29.37
2017-11-17T11:17:22.181Z,42.20
2017-11-17T11:18:27.703Z,34.80
2017-11-17T11:19:33.181Z,30.40
2017-11-17T11:20:39.130Z,30.02
2017-11-17T11:21:44.632Z,41.97
2017-11-17T11:22:50.120Z,28.70
2017-11-17T11:23:55.634Z,34.13
2017-11-17T11:25:01.068Z,38.45
2017-11-17T11:26:06.557Z,26.93
2017-11-17T11:27:12.499Z,24.87
2017-11-17T11:28:17.990Z,39.28
2017-11-17T11:29:23.575Z,20.33
2017-11-17T11:30:29.101Z,27.70
2017-11-17T11:31:34.636Z,26.10
2017-11-17T11:32:40.277Z,38.35
2017-11-17T11:33:46.128Z,34.70
2017-11-17T11:34:51.649Z,32.73
2017-11-17T11:35:57.204Z,32.10
2017-11-17T11:37:02.659Z,36.83
2017-11-17T11:38:08.531Z,36.60
2017-11-17T11:39:14.006Z,32.45
2017-11-17T11:40:19.658Z,43.58
2017-11-17T11:41:25.158Z,29.83
2017-11-17T11:42:30.581Z,32.10
2017-11-17T11:43:36.106Z,25.08
2017-11-17T11:44:41.850Z,25.45
2017-11-17T11:45:47.359Z,23.90
2017-11-17T11:46:53.484Z,23.67
2017-11-17T11:47:59.791Z,27.05
2017-11-17T11:49:05.691Z,29.98
2017-11-17T11:50:11.169Z,24.95
2017-11-17T11:51:16.642Z,22.77
2017-11-17T11:52:22.219Z,24.95
2017-11-17T11:53:27.647Z,24.08
2017-11-17T11:54:33.097Z,27.42
2017-11-17T11:55:38.838Z,24.23
2017-11-17T11:56:44.305Z,23.25
2017-11-17T11:57:49.758Z,26.15
2017-11-17T11:58:55.287Z,28.77
2017-11-17T12:00:00.733Z,22.67
2017-11-17T12:01:06.295Z,24.90
2017-11-17T12:02:11.815Z,23.45
2017-11-17T12:03:17.355Z,19.67
2017-11-17T12:04:22.813Z,24.92
2017-11-17T12:05:28.284Z,19.55
2017-11-17T12:06:34.107Z,21.90
2017-11-17T12:07:39.630Z,29.70
2017-11-17T12:08:45.090Z,17.17
2017-11-17T12:09:50.957Z,21.87
2017-11-17T12:10:56.430Z,20.20
2017-11-17T12:12:02.130Z,17.75
2017-11-17T12:13:07.589Z,20.23
2017-11-17T12:14:13.101Z,20.90
2017-11-17T12:15:18.550Z,24.23
2017-11-17T12:16:24.497Z,15.50
2017-11-17T12:17:30.064Z,16.42
2017-11-17T12:18:35.593Z,23.77
2017-11-17T12:19:41.064Z,25.42
2017-11-17T12:20:46.591Z,21.00
2017-11-17T12:21:52.084Z,14.30
2017-11-17T12:22:57.862Z,13.35
2017-11-17T12:24:03.341Z,16.30
2017-11-17T12:25:08.795Z,14.07
2017-11-17T12:26:14.298Z,19.67
2017-11-17T12:27:20.278Z,13.75
2017-11-17T12:28:25.834Z,16.62
2017-11-17T12:29:31.322Z,16.15
2017-11-17T12:30:36.813Z,15.37
2017-11-17T12:31:42.413Z,15.43
2017-11-17T12:32:48.047Z,11.73
2017-11-17T12:33:53.692Z,14.18
2017-11-17T12:34:59.166Z,12.13
2017-11-17T12:36:05.105Z,17.08
2017-11-17T12:37:10.633Z,17.23
2017-11-17T12:38:16.410Z,10.85
2017-11-17T12:39:21.884Z,14.43
2017-11-17T12:40:27.522Z,18.58
2017-11-17T12:41:33.030Z,19.00
2017-11-17T12:42:38.595Z,14.45
2017-11-17T12:43:44.544Z,17.00
2017-11-17T12:44:50.610Z,11.55
2017-11-17T12:45:56.159Z,21.23
2017-11-17T12:47:01.735Z,11.65
2017-11-17T12:48:07.480Z,19.12
2017-11-17T12:49:12.967Z,11.55
2017-11-17T12:50:18.563Z,9.05
2017-11-17T12:51:24.073Z,16.55
2017-11-17T12:52:29.662Z,14.10
2017-11-17T12:53:35.189Z,8.75
2017-11-17T12:54:41.161Z,13.15
2017-11-17T12:55:46.614Z,21.02
2017-11-17T12:56:52.141Z,12.65
2017-11-17T12:57:57.675Z,15.48
2017-11-17T12:59:03.159Z,14.40
2017-11-17T13:00:08.698Z,13.65
2017-11-17T13:01:14.218Z,18.60
2017-11-17T13:02:19.787Z,14.32
2017-11-17T13:03:25.349Z,11.18
2017-11-17T13:04:30.841Z,19.83
2017-11-17T13:05:36.662Z,18.37
2017-11-17T13:06:42.123Z,10.55
2017-11-17T13:07:47.640Z,15.73
2017-11-17T13:08:53.847Z,14.50
2017-11-17T13:09:59.343Z,20.48
2017-11-17T13:11:05.552Z,15.85
2017-11-17T13:12:11.085Z,12.97
2017-11-17T13:13:16.547Z,10.57
2017-11-17T13:14:22.109Z,16.85
2017-11-17T13:15:27.605Z,16.77
2017-11-17T13:16:33.141Z,17.52
2017-11-17T13:17:38.765Z,11.80
2017-11-17T13:18:44.335Z,14.23
2017-11-17T13:19:50.174Z,12.43
2017-11-17T13:20:55.793Z,21.00
2017-11-17T13:22:02.374Z,14.52
2017-11-17T13:23:08.545Z,11.65
2017-11-17T13:24:14.044Z,15.35
2017-11-17T13:25:19.932Z,11.85
2017-11-17T13:26:26.520Z,16.52
2017-11-17T13:27:33.525Z,12.43
2017-11-17T13:28:39.659Z,18.60
2017-11-17T13:29:45.124Z,18.27
2017-11-17T13:30:50.651Z,15.82
2017-11-17T13:31:56.956Z,19.05
2017-11-17T13:33:02.548Z,9.93
2017-11-17T13:34:08.379Z,16.50
2017-11-17T13:35:13.855Z,18.20
2017-11-17T13:36:19.377Z,16.73
2017-11-17T13:37:24.860Z,17.98
2017-11-17T13:38:30.463Z,8.63
2017-11-17T13:39:36.327Z,16.60
2017-11-17T13:40:41.851Z,16.45
2017-11-17T13:41:47.330Z,14.77
2017-11-17T13:42:52.865Z,14.70
2017-11-17T13:43:58.392Z,13.95
2017-11-17T13:45:04.324Z,11.68
2017-11-17T13:46:09.786Z,18.33
2017-11-17T13:47:15.285Z,11.53
2017-11-17T13:48:20.753Z,11.73
2017-11-17T13:49:26.297Z,8.98
2017-11-17T13:50:31.739Z,15.32
2017-11-17T13:51:37.392Z,9.63
2017-11-17T13:52:43.159Z,8.63
2017-11-17T13:53:48.828Z,12.32
2017-11-17T13:54:58.295Z,9.60
2017-11-17T13:56:03.983Z,12.27
2017-11-17T13:57:09.580Z,11.00
2017-11-17T13:58:15.128Z,11.98
2017-11-17T13:59:20.629Z,12.90
2017-11-17T14:00:26.450Z,12.40
2017-11-17T14:01:32.308Z,15.60
2017-11-17T14:02:37.848Z,15.57
2017-11-17T14:03:43.440Z,11.75
2017-11-17T14:04:49.559Z,11.12
2017-11-17T14:05:56.995Z,14.30
2017-11-17T14:07:02.525Z,18.33
2017-11-17T14:08:08.042Z,9.77
2017-11-17T14:09:13.953Z,16.05